Wan Hai 501 — S6AS7 — position and weather

sailwx.info

Track history (hours):
 
Tides and Currents Weather Stations Pressure Air Temp Water Temp Dewpoint Dewpoint Depression Visibility Wind Speed Wind Dir Waves Ship Positions

Wan Hai 501

Last reported at 2014-Aug-21 09:12 UTC. Time now 2014-Aug-22 15:42 UTC.
Position N 22°00' E 114°05'.

Length 269 m; draft 12.4 m.

Type: Cargo ship. MMSI: 563382000.

Date/timePositionNaut miles runAvg speedWind from/ knotsBaromVisibWave heightAir tempDewpointWater temp
2014-Aug-21 09:12N 22°00' E 114°05'1313.8
2014-Aug-21 08:15N 22°13' E 114°10'7 9.5
2014-Aug-21 07:32N 22°19' E 114°07'0 0.0
2014-Aug-20 23:18N 22°20' E 114°07'13 0.5
2014-Aug-19 19:33N 22°24' E 113°54'4 3.8
2014-Aug-19 18:33N 22°27' E 113°54'0 0.0
2014-Aug-19 17:29N 22°27' E 113°54'0 0.0
2014-Aug-19 16:29N 22°27' E 113°54'0 0.0
2014-Aug-19 15:29N 22°27' E 113°54'0 0.0
2014-Aug-19 14:29N 22°27' E 113°54'0 0.0
2014-Aug-19 13:29N 22°27' E 113°54'0 0.0
2014-Aug-19 12:29N 22°27' E 113°54'0 0.0
2014-Aug-19 11:29N 22°27' E 113°54'0 0.0
2014-Aug-19 10:29N 22°27' E 113°54'0 0.2
2014-Aug-19 09:33N 22°27' E 113°54'8 7.7
2014-Aug-19 08:29N 22°21' E 113°59'2910.0
2014-Aug-19 05:33N 22°09' E 114°28'30511.6
2014-Aug-18 03:25N 22°31' E 119°57'1618.2
2014-Aug-18 02:32N 22°33' E 120°14'6 5.7
2014-Aug-18 01:33N 22°33' E 120°20'0 0.0
2014-Aug-18 00:17N 22°33' E 120°20'0 0.0
2014-Aug-17 18:17N 22°33' E 120°20'0 0.0
2014-Aug-17 17:17N 22°33' E 120°20'0 0.0
2014-Aug-17 16:29N 22°33' E 120°20'3 3.6
2014-Aug-17 15:33N 22°32' E 120°16'1 1.3
2014-Aug-17 14:29N 22°31' E 120°16'0 0.0
2014-Aug-17 13:29N 22°31' E 120°16'0 0.0
2014-Aug-17 12:29N 22°31' E 120°16'0 0.0
2014-Aug-17 11:29N 22°31' E 120°16'0 0.1
2014-Aug-17 10:17N 22°31' E 120°16'0 0.0
2014-Aug-17 09:23N 22°31' E 120°16'0 0.0
2014-Aug-17 08:29N 22°31' E 120°16'0 0.0
2014-Aug-17 07:29N 22°31' E 120°16'0 0.0
2014-Aug-17 06:29N 22°31' E 120°16'0 0.1
2014-Aug-17 05:29N 22°31' E 120°16'0 0.0
2014-Aug-17 04:29N 22°31' E 120°16'0 0.0
2014-Aug-17 03:29N 22°31' E 120°16'0 0.2
2014-Aug-17 02:29N 22°31' E 120°16'0 0.1
2014-Aug-17 01:29N 22°31' E 120°16'0 0.1
2014-Aug-17 00:17N 22°31' E 120°16'0 0.1
2014-Aug-16 23:29N 22°31' E 120°16'0 0.0
2014-Aug-16 22:29N 22°31' E 120°16'0 0.1
2014-Aug-16 21:17N 22°31' E 120°16'0 0.1
2014-Aug-16 20:29N 22°31' E 120°16'0 0.0
2014-Aug-16 19:29N 22°31' E 120°16'0 0.1
2014-Aug-16 18:23N 22°31' E 120°16'0 0.0
2014-Aug-16 17:23N 22°31' E 120°16'0 0.1
2014-Aug-16 16:29N 22°31' E 120°16'0 0.0
2014-Aug-16 15:29N 22°31' E 120°16'0 0.0
2014-Aug-16 14:29N 22°31' E 120°16'0 0.0
2014-Aug-16 13:29N 22°31' E 120°16'0 0.0
2014-Aug-16 12:29N 22°31' E 120°16'0 0.1
2014-Aug-16 11:33N 22°31' E 120°16'9 8.6
2014-Aug-16 10:34N 22°37' E 120°09'1414.4
2014-Aug-16 09:33N 22°50' E 120°02'41913.1
2014-Aug-15 01:32N 29°28' E 122°25'1212.6
2014-Aug-15 00:33N 29°40' E 122°27'1312.5
2014-Aug-14 23:33N 29°48' E 122°15'1212.0
2014-Aug-14 22:33N 29°55' E 122°04'1110.7
2014-Aug-14 21:34N 29°56' E 121°52'0 0.1
2014-Aug-14 20:28N 29°56' E 121°52'0 0.0
2014-Aug-14 19:28N 29°56' E 121°52'0 0.0
2014-Aug-14 18:28N 29°56' E 121°52'0 0.0
2014-Aug-14 17:28N 29°56' E 121°52'0 0.0
2014-Aug-14 16:28N 29°56' E 121°52'0 0.0
2014-Aug-14 15:28N 29°56' E 121°52'0 0.0
2014-Aug-14 14:28N 29°56' E 121°52'0 0.0
2014-Aug-14 13:28N 29°56' E 121°52'0 0.0
2014-Aug-14 12:28N 29°56' E 121°52'0 0.0
2014-Aug-14 11:28N 29°56' E 121°52'2 2.3
2014-Aug-14 10:33N 29°57' E 121°54'9 8.8
2014-Aug-14 09:34N 29°55' E 122°04'1110.9
2014-Aug-14 08:33N 29°49' E 122°14'9 8.6
2014-Aug-14 07:33N 29°45' E 122°23'4 4.2
2014-Aug-14 06:30N 29°46' E 122°28'0 0.2
2014-Aug-14 05:31N 29°46' E 122°28'0 0.2
2014-Aug-14 04:24N 29°46' E 122°28'0 0.1
2014-Aug-14 03:30N 29°46' E 122°28'0 0.1
2014-Aug-14 02:30N 29°46' E 122°27'9 9.2
2014-Aug-14 01:33N 29°50' E 122°36'1918.5
2014-Aug-14 00:31N 30°06' E 122°48'1919.4
2014-Aug-13 23:33N 30°25' E 122°52'1919.5
2014-Aug-13 22:33N 30°44' E 122°55'2120.5
2014-Aug-13 21:33N 31°02' E 122°42'1815.7
2014-Aug-13 20:25N 31°06' E 122°22'1514.8
2014-Aug-13 19:23N 31°13' E 122°07'1315.0
2014-Aug-13 18:33N 31°16' E 121°52'1211.8
2014-Aug-13 17:33N 31°21' E 121°40'5 2.4
2014-Aug-13 15:33N 31°23' E 121°35'0 0.0
2014-Aug-13 14:33N 31°23' E 121°35'0 0.0
2014-Aug-13 13:21N 31°23' E 121°35'0 0.0
2014-Aug-13 12:33N 31°23' E 121°35'0 0.0
2014-Aug-13 11:33N 31°23' E 121°35'0 0.0
2014-Aug-13 10:27N 31°23' E 121°35'0 0.0
2014-Aug-13 09:33N 31°23' E 121°35'0 0.0
2014-Aug-13 08:33N 31°23' E 121°35'0 0.0
2014-Aug-13 07:33N 31°23' E 121°35'0 0.0
2014-Aug-13 06:27N 31°23' E 121°35'0 0.0
2014-Aug-13 05:33N 31°23' E 121°35'0 0.0
2014-Aug-13 04:27N 31°23' E 121°35'0 0.0
2014-Aug-13 03:33N 31°23' E 121°35'0 0.0
2014-Aug-13 02:33N 31°23' E 121°35'0 0.0
2014-Aug-13 01:33N 31°23' E 121°35'0 0.0
2014-Aug-13 00:33N 31°23' E 121°35'0 0.0
2014-Aug-12 23:33N 31°23' E 121°35'0 0.0
2014-Aug-12 22:33N 31°23' E 121°35'0 0.0
2014-Aug-12 21:33N 31°23' E 121°35'0 0.0
2014-Aug-12 20:33N 31°23' E 121°35'0 0.0
2014-Aug-12 19:33N 31°23' E 121°35'0 0.0
2014-Aug-12 18:21N 31°23' E 121°35'0 0.0
2014-Aug-12 17:33N 31°23' E 121°35'1 1.2
2014-Aug-12 16:33N 31°23' E 121°34'1110.8
2014-Aug-12 15:33N 31°19' E 121°45'1111.0
2014-Aug-12 14:31N 31°15' E 121°58'1714.1
2014-Aug-12 13:19N 31°08' E 122°16'1110.8
2014-Aug-12 12:20N 31°07' E 122°28'911.4
2014-Aug-12 11:32N 31°08' E 122°38'1 0.5
2014-Aug-12 09:29N 31°08' E 122°40'0 0.1
2014-Aug-12 06:11N 31°08' E 122°40'0 0.1
2014-Aug-12 04:23N 31°08' E 122°39'0 0.1
2014-Aug-12 02:17N 31°08' E 122°39'0 0.1
2014-Aug-12 01:23N 31°08' E 122°39'0 0.0
2014-Aug-11 17:23N 31°08' E 122°40'0 0.1
2014-Aug-11 16:23N 31°08' E 122°39'0 0.0
2014-Aug-11 10:23N 31°08' E 122°39'  
Track history (hours):
 
Tides and Currents Weather Stations Pressure Air Temp Water Temp Dewpoint Dewpoint Depression Visibility Wind Speed Wind Dir Waves Ship Positions

Wan Hai 501

Last reported at 2014-Aug-21 09:12 UTC. Time now 2014-Aug-22 15:42 UTC.
Position N 22°00' E 114°05'.

Length 269 m; draft 12.4 m.

Type: Cargo ship. MMSI: 563382000.

Date/timePositionNaut miles runAvg speedWind from/ knotsBaromVisibWave heightAir tempDewpointWater temp
2014-Aug-21 09:12N 22°00' E 114°05'1313.8
2014-Aug-21 08:15N 22°13' E 114°10'7 9.5
2014-Aug-21 07:32N 22°19' E 114°07'0 0.0
2014-Aug-20 23:18N 22°20' E 114°07'13 0.5
2014-Aug-19 19:33N 22°24' E 113°54'4 3.8
2014-Aug-19 18:33N 22°27' E 113°54'0 0.0
2014-Aug-19 17:29N 22°27' E 113°54'0 0.0
2014-Aug-19 16:29N 22°27' E 113°54'0 0.0
2014-Aug-19 15:29N 22°27' E 113°54'0 0.0
2014-Aug-19 14:29N 22°27' E 113°54'0 0.0
2014-Aug-19 13:29N 22°27' E 113°54'0 0.0
2014-Aug-19 12:29N 22°27' E 113°54'0 0.0
2014-Aug-19 11:29N 22°27' E 113°54'0 0.0
2014-Aug-19 10:29N 22°27' E 113°54'0 0.2
2014-Aug-19 09:33N 22°27' E 113°54'8 7.7
2014-Aug-19 08:29N 22°21' E 113°59'2910.0
2014-Aug-19 05:33N 22°09' E 114°28'30511.6
2014-Aug-18 03:25N 22°31' E 119°57'1618.2
2014-Aug-18 02:32N 22°33' E 120°14'6 5.7
2014-Aug-18 01:33N 22°33' E 120°20'0 0.0
2014-Aug-18 00:17N 22°33' E 120°20'0 0.0
2014-Aug-17 18:17N 22°33' E 120°20'0 0.0
2014-Aug-17 17:17N 22°33' E 120°20'0 0.0
2014-Aug-17 16:29N 22°33' E 120°20'3 3.6
2014-Aug-17 15:33N 22°32' E 120°16'1 1.3
2014-Aug-17 14:29N 22°31' E 120°16'0 0.0
2014-Aug-17 13:29N 22°31' E 120°16'0 0.0
2014-Aug-17 12:29N 22°31' E 120°16'0 0.0
2014-Aug-17 11:29N 22°31' E 120°16'0 0.1
2014-Aug-17 10:17N 22°31' E 120°16'0 0.0
2014-Aug-17 09:23N 22°31' E 120°16'0 0.0
2014-Aug-17 08:29N 22°31' E 120°16'0 0.0
2014-Aug-17 07:29N 22°31' E 120°16'0 0.0
2014-Aug-17 06:29N 22°31' E 120°16'0 0.1
2014-Aug-17 05:29N 22°31' E 120°16'0 0.0
2014-Aug-17 04:29N 22°31' E 120°16'0 0.0
2014-Aug-17 03:29N 22°31' E 120°16'0 0.2
2014-Aug-17 02:29N 22°31' E 120°16'0 0.1
2014-Aug-17 01:29N 22°31' E 120°16'0 0.1
2014-Aug-17 00:17N 22°31' E 120°16'0 0.1
2014-Aug-16 23:29N 22°31' E 120°16'0 0.0
2014-Aug-16 22:29N 22°31' E 120°16'0 0.1
2014-Aug-16 21:17N 22°31' E 120°16'0 0.1
2014-Aug-16 20:29N 22°31' E 120°16'0 0.0
2014-Aug-16 19:29N 22°31' E 120°16'0 0.1
2014-Aug-16 18:23N 22°31' E 120°16'0 0.0
2014-Aug-16 17:23N 22°31' E 120°16'0 0.1
2014-Aug-16 16:29N 22°31' E 120°16'0 0.0
2014-Aug-16 15:29N 22°31' E 120°16'0 0.0
2014-Aug-16 14:29N 22°31' E 120°16'0 0.0
2014-Aug-16 13:29N 22°31' E 120°16'0 0.0
2014-Aug-16 12:29N 22°31' E 120°16'0 0.1
2014-Aug-16 11:33N 22°31' E 120°16'9 8.6
2014-Aug-16 10:34N 22°37' E 120°09'1414.4
2014-Aug-16 09:33N 22°50' E 120°02'41913.1
2014-Aug-15 01:32N 29°28' E 122°25'1212.6
2014-Aug-15 00:33N 29°40' E 122°27'1312.5
2014-Aug-14 23:33N 29°48' E 122°15'1212.0
2014-Aug-14 22:33N 29°55' E 122°04'1110.7
2014-Aug-14 21:34N 29°56' E 121°52'0 0.1
2014-Aug-14 20:28N 29°56' E 121°52'0 0.0
2014-Aug-14 19:28N 29°56' E 121°52'0 0.0
2014-Aug-14 18:28N 29°56' E 121°52'0 0.0
2014-Aug-14 17:28N 29°56' E 121°52'0 0.0
2014-Aug-14 16:28N 29°56' E 121°52'0 0.0
2014-Aug-14 15:28N 29°56' E 121°52'0 0.0
2014-Aug-14 14:28N 29°56' E 121°52'0 0.0
2014-Aug-14 13:28N 29°56' E 121°52'0 0.0
2014-Aug-14 12:28N 29°56' E 121°52'0 0.0
2014-Aug-14 11:28N 29°56' E 121°52'2 2.3
2014-Aug-14 10:33N 29°57' E 121°54'9 8.8
2014-Aug-14 09:34N 29°55' E 122°04'1110.9
2014-Aug-14 08:33N 29°49' E 122°14'9 8.6
2014-Aug-14 07:33N 29°45' E 122°23'4 4.2
2014-Aug-14 06:30N 29°46' E 122°28'0 0.2
2014-Aug-14 05:31N 29°46' E 122°28'0 0.2
2014-Aug-14 04:24N 29°46' E 122°28'0 0.1
2014-Aug-14 03:30N 29°46' E 122°28'0 0.1
2014-Aug-14 02:30N 29°46' E 122°27'9 9.2
2014-Aug-14 01:33N 29°50' E 122°36'1918.5
2014-Aug-14 00:31N 30°06' E 122°48'1919.4
2014-Aug-13 23:33N 30°25' E 122°52'1919.5
2014-Aug-13 22:33N 30°44' E 122°55'2120.5
2014-Aug-13 21:33N 31°02' E 122°42'1815.7
2014-Aug-13 20:25N 31°06' E 122°22'1514.8
2014-Aug-13 19:23N 31°13' E 122°07'1315.0
2014-Aug-13 18:33N 31°16' E 121°52'1211.8
2014-Aug-13 17:33N 31°21' E 121°40'5 2.4
2014-Aug-13 15:33N 31°23' E 121°35'0 0.0
2014-Aug-13 14:33N 31°23' E 121°35'0 0.0
2014-Aug-13 13:21N 31°23' E 121°35'0 0.0
2014-Aug-13 12:33N 31°23' E 121°35'0 0.0
2014-Aug-13 11:33N 31°23' E 121°35'0 0.0
2014-Aug-13 10:27N 31°23' E 121°35'0 0.0
2014-Aug-13 09:33N 31°23' E 121°35'0 0.0
2014-Aug-13 08:33N 31°23' E 121°35'0 0.0
2014-Aug-13 07:33N 31°23' E 121°35'0 0.0
2014-Aug-13 06:27N 31°23' E 121°35'0 0.0
2014-Aug-13 05:33N 31°23' E 121°35'0 0.0
2014-Aug-13 04:27N 31°23' E 121°35'0 0.0
2014-Aug-13 03:33N 31°23' E 121°35'0 0.0
2014-Aug-13 02:33N 31°23' E 121°35'0 0.0
2014-Aug-13 01:33N 31°23' E 121°35'0 0.0
2014-Aug-13 00:33N 31°23' E 121°35'0 0.0
2014-Aug-12 23:33N 31°23' E 121°35'0 0.0
2014-Aug-12 22:33N 31°23' E 121°35'0 0.0
2014-Aug-12 21:33N 31°23' E 121°35'0 0.0
2014-Aug-12 20:33N 31°23' E 121°35'0 0.0
2014-Aug-12 19:33N 31°23' E 121°35'0 0.0
2014-Aug-12 18:21N 31°23' E 121°35'0 0.0
2014-Aug-12 17:33N 31°23' E 121°35'1 1.2
2014-Aug-12 16:33N 31°23' E 121°34'1110.8
2014-Aug-12 15:33N 31°19' E 121°45'1111.0
2014-Aug-12 14:31N 31°15' E 121°58'1714.1
2014-Aug-12 13:19N 31°08' E 122°16'1110.8
2014-Aug-12 12:20N 31°07' E 122°28'911.4
2014-Aug-12 11:32N 31°08' E 122°38'1 0.5
2014-Aug-12 09:29N 31°08' E 122°40'0 0.1
2014-Aug-12 06:11N 31°08' E 122°40'0 0.1
2014-Aug-12 04:23N 31°08' E 122°39'0 0.1
2014-Aug-12 02:17N 31°08' E 122°39'0 0.1
2014-Aug-12 01:23N 31°08' E 122°39'0 0.0
2014-Aug-11 17:23N 31°08' E 122°40'0 0.1
2014-Aug-11 16:23N 31°08' E 122°39'0 0.0
2014-Aug-11 10:23N 31°08' E 122°39'  

Dump ship's entire track history